Time;durP1;ratioP1;P1;durP2;ratioP2;P2;SDS_P1;SDS_P2;PMS_P1;PMS_P2;Temp;Humidity;BMP_temperature;BMP_pressure;BME280_temperature;BME280_humidity;BME280_pressure;Samples;Min_cycle;Max_cycle;Signal;HPM_P1;HPM_P2
2023/04/08 00:01:51;;;;;;;;;46.40;39.60;;;;;;;;5034803;29;8810;-67
2023/04/08 00:04:22;;;;;;;;;42.60;39.60;;;;;;;;5050136;29;8801;-68
2023/04/08 00:06:55;;;;;;;;;44.00;36.60;;;;;;;;5034196;29;8810;-68
2023/04/08 00:09:26;;;;;;;;;58.60;47.20;;;;;;;;5049839;29;8832;-67
2023/04/08 00:11:57;;;;;;;;;49.50;43.50;;;;;;;;5066565;29;9597;-67
2023/04/08 00:14:27;;;;;;;;;44.25;35.25;;;;;;;;5049570;29;11539;-66
2023/04/08 00:16:58;;;;;;;;;51.00;45.00;;;;;;;;5050005;29;8841;-66
2023/04/08 00:19:29;;;;;;;;;68.20;54.20;;;;;;;;5050006;29;10226;-66
2023/04/08 00:22:01;;;;;;;;;66.80;51.40;;;;;;;;5065952;29;9539;-67
2023/04/08 00:24:32;;;;;;;;;50.00;44.20;;;;;;;;5049680;29;8810;-66
2023/04/08 00:27:03;;;;;;;;;76.00;59.00;;;;;;;;5049686;29;8794;-66
2023/04/08 00:29:33;;;;;;;;;83.80;65.20;;;;;;;;5034433;29;8809;-67
2023/04/08 00:32:05;;;;;;;;;82.00;62.00;;;;;;;;5049728;29;8814;-67
2023/04/08 00:34:36;;;;;;;;;88.00;66.50;;;;;;;;5049018;29;11449;-67
2023/04/08 00:37:07;;;;;;;;;96.00;74.33;;;;;;;;5034204;29;8817;-67
2023/04/08 00:39:37;;;;;;;;;95.00;73.67;;;;;;;;5034081;29;8770;-66
2023/04/08 00:42:08;;;;;;;;;90.50;72.00;;;;;;;;5049510;29;8798;-66
2023/04/08 00:44:39;;;;;;;;;101.67;77.67;;;;;;;;5049142;29;8814;-66
2023/04/08 00:47:11;;;;;;;;;96.50;71.75;;;;;;;;5033825;29;8809;-67
2023/04/08 00:49:42;;;;;;;;;112.75;86.00;;;;;;;;5066203;29;8857;-66
2023/04/08 00:52:32;;;;;;;;;116.50;87.50;;;;;;;;5035653;29;8822;-67
2023/04/08 00:55:04;;;;;;;;;89.75;67.00;;;;;;;;5048481;29;8924;-67
2023/04/08 00:57:35;;;;;;;;;95.25;74.25;;;;;;;;5048797;29;8841;-67
2023/04/08 01:00:06;;;;;;;;;101.00;77.25;;;;;;;;5065876;29;8845;-66
2023/04/08 01:02:43;;;;;;;;;113.75;79.00;;;;;;;;5048822;29;8778;-66
2023/04/08 01:05:22;;;;;;;;;104.00;76.00;;;;;;;;5049168;29;8806;-66
2023/04/08 01:07:53;;;;;;;;;106.00;77.75;;;;;;;;5049103;29;8785;-66
2023/04/08 01:10:33;;;;;;;;;103.50;76.25;;;;;;;;5049018;29;9694;-66
2023/04/08 01:13:07;;;;;;;;;100.50;76.00;;;;;;;;5017822;29;9648;-66
2023/04/08 01:15:40;;;;;;;;;97.50;75.00;;;;;;;;5033387;29;8848;-67
2023/04/08 01:18:12;;;;;;;;;117.50;100.25;;;;;;;;5033087;29;9567;-67
2023/04/08 01:20:44;;;;;;;;;117.33;100.33;;;;;;;;5049030;29;8766;-68
2023/04/08 01:23:35;;;;;;;;;103.75;78.00;;;;;;;;5048332;29;9170;-67
2023/04/08 01:26:06;;;;;;;;;421.75;292.25;;;;;;;;5048591;29;8786;-67
2023/04/08 01:28:38;;;;;;;;;182.50;141.00;;;;;;;;5048621;29;8794;-66
2023/04/08 01:31:09;;;;;;;;;108.75;75.25;;;;;;;;5017596;29;8817;-67
2023/04/08 01:33:41;;;;;;;;;101.25;73.00;;;;;;;;5048509;29;8824;-67
2023/04/08 01:36:13;;;;;;;;;105.75;77.50;;;;;;;;5065275;29;8794;-67
2023/04/08 01:38:45;;;;;;;;;102.50;79.25;;;;;;;;5033130;29;8837;-67
2023/04/08 01:41:17;;;;;;;;;90.50;69.00;;;;;;;;5032867;29;8916;-67
2023/04/08 01:43:49;;;;;;;;;100.25;75.25;;;;;;;;5032459;29;8802;-68
2023/04/08 01:46:20;;;;;;;;;95.75;74.75;;;;;;;;5048475;29;8794;-68
2023/04/08 01:49:10;;;;;;;;;85.00;65.75;;;;;;;;5065240;29;8786;-69
2023/04/08 01:51:43;;;;;;;;;86.00;69.00;;;;;;;;5032095;29;8818;-67
2023/04/08 01:54:15;;;;;;;;;92.75;68.50;;;;;;;;5048340;29;8829;-66
2023/04/08 01:56:46;;;;;;;;;80.00;63.00;;;;;;;;5048358;29;8924;-67
2023/04/08 01:59:18;;;;;;;;;86.00;65.60;;;;;;;;5032993;29;8786;-67
2023/04/08 02:01:50;;;;;;;;;90.20;70.60;;;;;;;;5032770;29;8798;-67
2023/04/08 02:04:21;;;;;;;;;88.50;68.25;;;;;;;;5048537;29;9646;-67
2023/04/08 02:06:52;;;;;;;;;88.00;65.00;;;;;;;;5064680;29;9000;-68
2023/04/08 02:09:24;;;;;;;;;78.60;63.80;;;;;;;;5033168;29;8801;-68
2023/04/08 02:12:13;;;;;;;;;109.25;84.75;;;;;;;;5064931;29;8825;-68
2023/04/08 02:14:44;;;;;;;;;109.75;89.25;;;;;;;;5032733;29;9530;-67
2023/04/08 02:17:21;;;;;;;;;95.75;75.25;;;;;;;;5048268;29;9647;-69
2023/04/08 02:19:59;;;;;;;;;90.75;68.25;;;;;;;;5048468;29;8794;-69
2023/04/08 02:22:38;;;;;;;;;93.25;71.00;;;;;;;;5032321;29;9510;-69
2023/04/08 02:25:15;;;;;;;;;106.00;75.75;;;;;;;;5048101;29;8832;-69
2023/04/08 02:27:48;;;;;;;;;98.75;73.50;;;;;;;;5032855;29;8822;-69
2023/04/08 02:30:20;;;;;;;;;101.00;76.25;;;;;;;;5032775;29;8813;-67
2023/04/08 02:32:53;;;;;;;;;79.25;64.25;;;;;;;;5030460;29;8853;-71
2023/04/08 02:35:43;;;;;;;;;96.75;73.75;;;;;;;;5030419;29;8806;-69
2023/04/08 02:38:33;;;;;;;;;97.25;71.75;;;;;;;;5047507;29;8902;-66
2023/04/08 02:41:04;;;;;;;;;94.00;70.00;;;;;;;;5064642;29;8802;-66
2023/04/08 02:43:35;;;;;;;;;90.50;67.50;;;;;;;;5031088;29;8855;-68
2023/04/08 02:46:25;;;;;;;;;87.40;68.00;;;;;;;;5040726;29;8849;-66
2023/04/08 02:48:56;;;;;;;;;82.80;65.00;;;;;;;;5032608;29;8865;-67
2023/04/08 02:51:27;;;;;;;;;91.25;72.25;;;;;;;;5047321;29;8825;-67
2023/04/08 02:53:58;;;;;;;;;92.00;71.75;;;;;;;;5047402;29;8867;-66
2023/04/08 02:56:29;;;;;;;;;90.00;69.00;;;;;;;;5048967;29;8898;-66
2023/04/08 02:59:00;;;;;;;;;85.75;66.25;;;;;;;;5067941;29;11519;-66
2023/04/08 03:01:31;;;;;;;;;93.50;73.75;;;;;;;;5050956;29;8834;-67
2023/04/08 03:04:02;;;;;;;;;88.67;66.33;;;;;;;;5050644;29;8842;-67
2023/04/08 03:06:33;;;;;;;;;89.67;67.00;;;;;;;;5035144;29;11555;-66
2023/04/08 03:09:07;;;;;;;;;88.80;70.40;;;;;;;;5035685;29;11140;-66
2023/04/08 03:11:38;;;;;;;;;89.25;68.00;;;;;;;;5050982;29;8790;-66
2023/04/08 03:14:09;;;;;;;;;92.25;65.50;;;;;;;;5067780;29;8825;-66
2023/04/08 03:16:40;;;;;;;;;87.25;68.00;;;;;;;;5035149;29;8818;-67
2023/04/08 03:19:11;;;;;;;;;78.80;61.00;;;;;;;;5066996;29;9030;-66
2023/04/08 03:21:42;;;;;;;;;87.67;66.00;;;;;;;;5050911;29;8917;-67
2023/04/08 03:24:13;;;;;;;;;106.33;85.67;;;;;;;;5067173;29;8809;-67
2023/04/08 03:26:43;;;;;;;;;95.67;74.33;;;;;;;;5050856;29;8790;-67
2023/04/08 03:29:14;;;;;;;;;93.33;71.67;;;;;;;;5067298;29;9621;-67
2023/04/08 03:31:45;;;;;;;;;85.67;67.33;;;;;;;;5049056;29;9573;-67
2023/04/08 03:34:16;;;;;;;;;89.67;70.00;;;;;;;;5064867;29;11533;-67
2023/04/08 03:37:06;;;;;;;;;102.00;80.25;;;;;;;;5047179;29;10431;-70
2023/04/08 03:39:37;;;;;;;;;103.25;75.50;;;;;;;;5055813;29;8822;-69
2023/04/08 03:42:08;;;;;;;;;94.50;71.75;;;;;;;;5035441;29;8841;-68
2023/04/08 03:44:39;;;;;;;;;97.67;73.67;;;;;;;;5048088;29;8836;-68
2023/04/08 03:47:10;;;;;;;;;98.67;79.33;;;;;;;;5047419;29;11653;-68
2023/04/08 03:49:41;;;;;;;;;106.00;85.50;;;;;;;;5050864;29;8818;-69
2023/04/08 03:52:15;;;;;;;;;104.75;88.00;;;;;;;;5046452;29;9570;-69
2023/04/08 03:54:46;;;;;;;;;103.67;81.67;;;;;;;;5030941;29;8786;-71
2023/04/08 03:57:17;;;;;;;;;98.25;77.00;;;;;;;;5060717;29;8802;-70
2023/04/08 03:59:48;;;;;;;;;105.00;86.00;;;;;;;;5053309;29;8802;-69
2023/04/08 04:02:19;;;;;;;;;98.00;74.00;;;;;;;;5046695;29;8892;-69
2023/04/08 04:04:51;;;;;;;;;127.33;105.33;;;;;;;;5030935;29;11551;-76
2023/04/08 04:07:43;;;;;;;;;96.75;80.25;;;;;;;;5031694;29;8818;-77
2023/04/08 04:10:16;;;;;;;;;96.00;78.50;;;;;;;;5031409;29;8850;-78
2023/04/08 04:12:49;;;;;;;;;104.50;83.25;;;;;;;;5032377;29;8833;-76
2023/04/08 04:15:23;;;;;;;;;107.50;76.50;;;;;;;;5031165;29;8821;-76
2023/04/08 04:17:55;;;;;;;;;102.00;83.25;;;;;;;;5046697;29;8861;-76
2023/04/08 04:20:47;;;;;;;;;97.75;76.50;;;;;;;;5045512;29;8858;-76
2023/04/08 04:23:23;;;;;;;;;91.50;74.50;;;;;;;;5029406;29;8828;-76
2023/04/08 04:25:55;;;;;;;;;105.25;90.00;;;;;;;;5047689;29;9541;-76
2023/04/08 04:28:29;;;;;;;;;99.00;77.00;;;;;;;;5033214;29;8804;-78
2023/04/08 04:31:02;;;;;;;;;101.00;83.50;;;;;;;;5049750;29;8817;-74
2023/04/08 04:33:35;;;;;;;;;107.25;85.50;;;;;;;;5016690;29;8842;-77
2023/04/08 04:36:07;;;;;;;;;95.00;75.50;;;;;;;;5032488;29;8901;-76
2023/04/08 04:38:41;;;;;;;;;105.00;84.75;;;;;;;;5032521;29;8805;-76
2023/04/08 04:41:15;;;;;;;;;101.00;84.75;;;;;;;;5048117;29;8798;-77
2023/04/08 04:43:47;;;;;;;;;109.50;89.75;;;;;;;;5048186;29;8852;-78
2023/04/08 04:46:20;;;;;;;;;106.75;84.75;;;;;;;;5031976;29;8814;-75
2023/04/08 04:48:52;;;;;;;;;110.75;89.25;;;;;;;;5033446;29;8809;-75
2023/04/08 04:51:26;;;;;;;;;100.50;79.50;;;;;;;;5032152;29;8828;-76
2023/04/08 04:53:58;;;;;;;;;120.00;103.00;;;;;;;;5047841;29;8837;-75
2023/04/08 04:56:31;;;;;;;;;242.00;181.50;;;;;;;;5031631;29;8920;-76
2023/04/08 04:59:04;;;;;;;;;173.50;115.00;;;;;;;;5030644;29;11559;-76
2023/04/08 05:01:36;;;;;;;;;143.00;120.25;;;;;;;;5047344;29;11528;-75
2023/04/08 05:04:10;;;;;;;;;121.50;96.50;;;;;;;;5029977;29;10303;-75
2023/04/08 05:06:43;;;;;;;;;88.00;69.50;;;;;;;;5047279;29;8774;-76
2023/04/08 05:09:17;;;;;;;;;94.00;73.50;;;;;;;;5032125;29;9611;-77
2023/04/08 05:11:49;;;;;;;;;77.20;61.40;;;;;;;;5031493;29;9525;-70
2023/04/08 05:14:20;;;;;;;;;85.20;64.40;;;;;;;;5048628;29;9536;-70
2023/04/08 05:16:51;;;;;;;;;89.25;67.50;;;;;;;;5033116;29;8826;-70
2023/04/08 05:19:22;;;;;;;;;66.60;54.60;;;;;;;;5034148;29;8816;-70
2023/04/08 05:21:53;;;;;;;;;67.80;54.40;;;;;;;;5020539;29;9600;-70
2023/04/08 05:24:24;;;;;;;;;68.50;53.50;;;;;;;;5059252;29;8801;-70
2023/04/08 05:27:13;;;;;;;;;77.40;62.20;;;;;;;;5030336;29;11434;-69
2023/04/08 05:29:44;;;;;;;;;65.60;53.00;;;;;;;;5027771;29;8839;-70
2023/04/08 05:32:18;;;;;;;;;58.20;48.80;;;;;;;;5056521;29;8857;-70
2023/04/08 05:35:08;;;;;;;;;71.20;59.40;;;;;;;;5051095;29;8802;-69
2023/04/08 05:37:39;;;;;;;;;73.20;58.60;;;;;;;;5031376;29;8802;-71
2023/04/08 05:40:10;;;;;;;;;78.50;63.25;;;;;;;;5046823;29;8812;-72
2023/04/08 05:42:41;;;;;;;;;90.67;73.67;;;;;;;;5030686;29;10233;-74
2023/04/08 05:45:12;;;;;;;;;69.40;57.80;;;;;;;;5031610;29;8916;-72
2023/04/08 05:47:43;;;;;;;;;68.25;55.00;;;;;;;;5031402;29;8798;-71
2023/04/08 05:50:14;;;;;;;;;76.00;59.60;;;;;;;;5052592;29;8804;-70
2023/04/08 05:52:45;;;;;;;;;60.20;50.60;;;;;;;;5064437;29;8989;-70
2023/04/08 05:55:16;;;;;;;;;48.20;43.00;;;;;;;;5045752;29;8798;-71
2023/04/08 05:57:47;;;;;;;;;53.00;44.25;;;;;;;;5031228;29;9747;-72
2023/04/08 06:00:18;;;;;;;;;53.20;45.40;;;;;;;;5046449;29;11547;-70
2023/04/08 06:03:08;;;;;;;;;46.20;40.60;;;;;;;;5062938;29;8858;-71
2023/04/08 06:05:39;;;;;;;;;19.00;18.75;;;;;;;;5045671;29;8821;-71
2023/04/08 06:08:10;;;;;;;;;25.20;24.80;;;;;;;;5031003;29;8782;-70
2023/04/08 06:10:47;;;;;;;;;24.20;23.60;;;;;;;;5046414;29;8825;-70
2023/04/08 06:13:19;;;;;;;;;30.60;30.00;;;;;;;;5046526;29;8841;-70
2023/04/08 06:15:50;;;;;;;;;20.00;20.00;;;;;;;;5045835;29;8851;-70
2023/04/08 06:18:22;;;;;;;;;11.60;11.20;;;;;;;;5045939;29;8810;-71
2023/04/08 06:20:53;;;;;;;;;12.60;12.60;;;;;;;;5046281;29;8932;-71
2023/04/08 06:23:24;;;;;;;;;14.20;14.20;;;;;;;;5046710;29;8845;-70
2023/04/08 06:25:55;;;;;;;;;26.20;26.00;;;;;;;;5059288;29;8797;-71
2023/04/08 06:28:28;;;;;;;;;28.75;28.75;;;;;;;;5059631;29;9533;-71
2023/04/08 06:30:59;;;;;;;;;32.80;31.80;;;;;;;;5049414;29;8793;-71
2023/04/08 06:33:31;;;;;;;;;23.60;23.60;;;;;;;;5061070;29;8930;-70
2023/04/08 06:36:02;;;;;;;;;25.00;24.00;;;;;;;;5055684;29;8926;-71
2023/04/08 06:38:33;;;;;;;;;24.40;24.40;;;;;;;;5070095;29;11607;-70
2023/04/08 06:41:05;;;;;;;;;18.40;18.40;;;;;;;;5018514;29;8850;-70
2023/04/08 06:43:36;;;;;;;;;17.20;15.60;;;;;;;;5035814;29;8817;-70
2023/04/08 06:46:07;;;;;;;;;12.60;12.60;;;;;;;;5050668;29;9565;-70
2023/04/08 06:48:39;;;;;;;;;7.40;7.40;;;;;;;;5050690;29;8841;-71
2023/04/08 06:51:10;;;;;;;;;7.80;7.80;;;;;;;;5043517;29;8818;-70
2023/04/08 06:53:41;;;;;;;;;2.80;2.80;;;;;;;;5048625;29;8904;-70
2023/04/08 06:56:14;;;;;;;;;2.00;2.00;;;;;;;;5035580;29;8858;-78
2023/04/08 06:58:46;;;;;;;;;2.00;2.00;;;;;;;;5020237;29;8948;-78
2023/04/08 07:01:39;;;;;;;;;16.40;15.20;;;;;;;;5037836;29;8828;-79
2023/04/08 07:04:12;;;;;;;;;6.80;6.80;;;;;;;;5019903;29;8794;-81
2023/04/08 07:06:45;;;;;;;;;13.40;12.40;;;;;;;;5035975;29;8802;-79
2023/04/08 07:09:17;;;;;;;;;35.60;34.40;;;;;;;;5051092;29;8984;-78
2023/04/08 07:12:10;;;;;;;;;6.40;6.20;;;;;;;;5044401;29;8921;-78
2023/04/08 07:14:43;;;;;;;;;20.00;20.00;;;;;;;;5034753;29;9512;-79
2023/04/08 07:17:18;;;;;;;;;5.60;5.60;;;;;;;;5016455;29;8847;-78
2023/04/08 07:19:51;;;;;;;;;2.60;2.60;;;;;;;;5017043;29;8880;-79
2023/04/08 07:22:24;;;;;;;;;0.00;0.00;;;;;;;;5031385;29;8811;-78
2023/04/08 07:24:57;;;;;;;;;6.80;6.80;;;;;;;;5025255;29;8806;-77
2023/04/08 07:27:31;;;;;;;;;2.60;2.60;;;;;;;;5032260;29;8948;-78
2023/04/08 07:30:03;;;;;;;;;76.60;59.20;;;;;;;;5066023;29;8936;-78
2023/04/08 07:32:36;;;;;;;;;9.00;8.00;;;;;;;;5019402;29;9072;-78
2023/04/08 07:35:09;;;;;;;;;3.00;3.00;;;;;;;;5017519;29;8884;-78
2023/04/08 07:37:41;;;;;;;;;1.00;1.00;;;;;;;;5034405;29;8877;-78
2023/04/08 07:40:14;;;;;;;;;1.00;1.00;;;;;;;;5034527;29;8824;-78
2023/04/08 07:42:46;;;;;;;;;1.00;1.00;;;;;;;;5049514;29;8781;-78
2023/04/08 07:45:18;;;;;;;;;1.20;1.20;;;;;;;;5034454;29;8814;-78
2023/04/08 07:48:09;;;;;;;;;8.80;8.80;;;;;;;;5032637;29;8812;-79
2023/04/08 07:50:44;;;;;;;;;3.20;3.20;;;;;;;;5045203;29;8803;-78
2023/04/08 07:53:17;;;;;;;;;1.60;1.60;;;;;;;;5015911;29;8941;-79
2023/04/08 07:55:50;;;;;;;;;1.60;1.60;;;;;;;;5000578;29;9554;-78
2023/04/08 07:58:23;;;;;;;;;3.00;3.00;;;;;;;;5030196;29;9514;-78
2023/04/08 08:00:56;;;;;;;;;4.20;4.20;;;;;;;;5049759;29;8809;-81
2023/04/08 08:03:27;;;;;;;;;2.00;2.00;;;;;;;;5035062;29;8789;-73
2023/04/08 08:05:58;;;;;;;;;4.00;3.25;;;;;;;;5034882;29;8877;-78
2023/04/08 08:08:32;;;;;;;;;9.40;9.40;;;;;;;;5034124;29;10988;-78
2023/04/08 08:11:03;;;;;;;;;3.80;3.80;;;;;;;;5019365;29;8818;-72
2023/04/08 08:13:34;;;;;;;;;44.80;37.00;;;;;;;;5065344;29;9526;-70
2023/04/08 08:16:27;;;;;;;;;8.20;7.40;;;;;;;;5052429;29;8810;-70
2023/04/08 08:18:58;;;;;;;;;2.00;2.00;;;;;;;;5066156;29;8814;-70
2023/04/08 08:21:30;;;;;;;;;1.00;1.00;;;;;;;;5049680;29;8908;-71
2023/04/08 08:24:01;;;;;;;;;6.00;6.00;;;;;;;;5049957;29;8793;-70
2023/04/08 08:26:37;;;;;;;;;3.75;3.75;;;;;;;;5049776;29;8798;-70
2023/04/08 08:29:27;;;;;;;;;4.80;4.80;;;;;;;;5065650;29;8889;-70
2023/04/08 08:31:58;;;;;;;;;3.00;3.00;;;;;;;;5065834;29;8886;-70
2023/04/08 08:34:29;;;;;;;;;4.60;4.60;;;;;;;;5049094;29;8798;-70
2023/04/08 08:37:00;;;;;;;;;5.00;5.00;;;;;;;;5033501;29;8809;-70
2023/04/08 08:39:32;;;;;;;;;5.20;5.20;;;;;;;;5033623;29;8790;-70
2023/04/08 08:42:05;;;;;;;;;3.60;3.60;;;;;;;;5017800;29;8801;-69
2023/04/08 08:44:37;;;;;;;;;7.80;7.80;;;;;;;;5033456;29;8813;-70
2023/04/08 08:47:07;;;;;;;;;4.00;4.00;;;;;;;;5048928;29;8810;-70
2023/04/08 08:49:39;;;;;;;;;5.00;5.00;;;;;;;;5050865;29;8817;-72
2023/04/08 08:52:14;;;;;;;;;5.20;5.00;;;;;;;;5051416;29;8798;-71
2023/04/08 08:54:45;;;;;;;;;19.80;19.80;;;;;;;;5033408;29;8824;-70
2023/04/08 08:57:19;;;;;;;;;12.40;12.20;;;;;;;;5048913;29;8880;-70
2023/04/08 08:59:50;;;;;;;;;4.00;4.00;;;;;;;;5063310;29;8866;-70
2023/04/08 09:02:28;;;;;;;;;5.00;5.00;;;;;;;;5064192;29;8802;-70
2023/04/08 09:05:00;;;;;;;;;7.20;7.20;;;;;;;;5048307;29;8877;-68
2023/04/08 09:07:39;;;;;;;;;6.00;5.60;;;;;;;;5033289;29;9510;-68
2023/04/08 09:10:10;;;;;;;;;6.00;5.80;;;;;;;;5032985;29;8798;-68
2023/04/08 09:12:59;;;;;;;;;1.40;1.40;;;;;;;;5048405;29;8810;-68
2023/04/08 09:15:30;;;;;;;;;8.00;8.00;;;;;;;;5064807;29;8836;-68
2023/04/08 09:18:01;;;;;;;;;8.80;8.80;;;;;;;;5048245;29;9016;-67
2023/04/08 09:20:32;;;;;;;;;9.60;9.60;;;;;;;;5047533;29;8809;-67
2023/04/08 09:23:03;;;;;;;;;6.75;6.75;;;;;;;;5065373;29;8812;-67
2023/04/08 09:25:34;;;;;;;;;9.75;8.50;;;;;;;;5048126;29;8840;-68
2023/04/08 09:28:17;;;;;;;;;10.75;8.50;;;;;;;;5048708;29;9572;-68
2023/04/08 09:30:48;;;;;;;;;10.00;10.00;;;;;;;;5063985;29;10795;-67
2023/04/08 09:33:19;;;;;;;;;6.75;6.75;;;;;;;;5047980;29;8826;-68
2023/04/08 09:35:50;;;;;;;;;11.00;11.00;;;;;;;;5048084;29;8794;-67
2023/04/08 09:38:21;;;;;;;;;11.80;11.00;;;;;;;;5048056;29;8790;-68
2023/04/08 09:40:53;;;;;;;;;14.60;13.80;;;;;;;;5064834;29;8798;-67
2023/04/08 09:43:24;;;;;;;;;18.40;18.40;;;;;;;;5047979;29;8820;-68
2023/04/08 09:45:56;;;;;;;;;13.00;12.20;;;;;;;;5047487;29;8911;-68
2023/04/08 09:48:31;;;;;;;;;16.60;15.60;;;;;;;;5047767;29;9529;-68
2023/04/08 09:51:02;;;;;;;;;9.00;9.00;;;;;;;;5066349;29;8798;-68
2023/04/08 09:53:35;;;;;;;;;3.00;3.00;;;;;;;;5047623;29;8841;-68
2023/04/08 09:56:08;;;;;;;;;1.20;1.20;;;;;;;;5039896;29;8868;-68
2023/04/08 09:58:51;;;;;;;;;4.00;4.00;;;;;;;;5029065;29;8790;-68
2023/04/08 10:01:43;;;;;;;;;2.60;2.60;;;;;;;;5012634;29;8835;-67
2023/04/08 10:04:19;;;;;;;;;3.20;3.20;;;;;;;;5042238;29;8881;-67
2023/04/08 10:07:09;;;;;;;;;2.00;2.00;;;;;;;;5032408;29;8826;-67
2023/04/08 10:09:42;;;;;;;;;6.80;6.80;;;;;;;;5032131;29;8973;-67
2023/04/08 10:12:13;;;;;;;;;1.60;1.60;;;;;;;;5033078;29;8810;-67
2023/04/08 10:15:03;;;;;;;;;3.00;3.00;;;;;;;;5032222;29;8831;-67
2023/04/08 10:17:35;;;;;;;;;5.00;5.00;;;;;;;;5031698;29;9589;-67
2023/04/08 10:20:26;;;;;;;;;4.00;4.00;;;;;;;;5048577;29;8827;-68
2023/04/08 10:22:57;;;;;;;;;4.50;4.50;;;;;;;;5027500;29;8902;-68
2023/04/08 10:25:31;;;;;;;;;3.25;3.00;;;;;;;;5027064;29;8817;-69
2023/04/08 10:28:23;;;;;;;;;7.00;7.00;;;;;;;;5029495;29;10274;-68
2023/04/08 10:30:54;;;;;;;;;6.00;5.40;;;;;;;;5026231;29;9739;-68
2023/04/08 10:33:28;;;;;;;;;3.00;3.00;;;;;;;;5043078;29;8923;-68
2023/04/08 10:36:01;;;;;;;;;2.80;2.80;;;;;;;;5046531;29;8825;-68
2023/04/08 10:38:50;;;;;;;;;3.50;3.50;;;;;;;;5025203;29;8821;-68
2023/04/08 10:41:24;;;;;;;;;13.00;12.00;;;;;;;;5029907;29;8815;-68
2023/04/08 10:43:55;;;;;;;;;6.00;6.00;;;;;;;;5030435;29;9686;-67
2023/04/08 10:46:45;;;;;;;;;4.00;4.00;;;;;;;;5046594;29;8811;-67
2023/04/08 10:49:17;;;;;;;;;3.25;3.25;;;;;;;;5046717;29;8822;-67
2023/04/08 10:52:07;;;;;;;;;2.00;2.00;;;;;;;;5032672;29;8835;-67
2023/04/08 10:54:57;;;;;;;;;5.25;5.25;;;;;;;;5046635;29;8842;-68
2023/04/08 10:57:28;;;;;;;;;11.20;11.20;;;;;;;;5046403;29;9784;-67
2023/04/08 10:59:59;;;;;;;;;4.00;4.00;;;;;;;;5030003;29;8819;-68
2023/04/08 11:02:33;;;;;;;;;6.20;6.20;;;;;;;;5046778;29;9535;-67
2023/04/08 11:05:04;;;;;;;;;6.40;6.40;;;;;;;;5025295;29;8816;-67
2023/04/08 11:07:41;;;;;;;;;5.75;5.75;;;;;;;;5014332;29;8803;-67
2023/04/08 11:10:36;;;;;;;;;3.00;3.00;;;;;;;;5013887;29;8881;-67
2023/04/08 11:13:10;;;;;;;;;2.25;2.25;;;;;;;;5027581;29;9590;-67
2023/04/08 11:15:41;;;;;;;;;5.00;4.25;;;;;;;;5030007;29;8814;-67
2023/04/08 11:18:12;;;;;;;;;6.00;3.00;;;;;;;;5028651;29;8807;-67
2023/04/08 11:20:43;;;;;;;;;8.00;6.60;;;;;;;;5046578;29;8834;-67
2023/04/08 11:23:15;;;;;;;;;6.00;6.00;;;;;;;;5046359;29;8814;-67
2023/04/08 11:25:47;;;;;;;;;9.20;9.20;;;;;;;;5028033;29;8835;-68
2023/04/08 11:28:18;;;;;;;;;2.50;2.50;;;;;;;;5028333;29;8787;-67
2023/04/08 11:30:49;;;;;;;;;1.75;1.75;;;;;;;;5014955;29;8810;-68
2023/04/08 11:33:20;;;;;;;;;7.00;7.00;;;;;;;;5048716;29;8810;-67
2023/04/08 11:35:52;;;;;;;;;8.00;8.00;;;;;;;;5019519;29;8842;-67
2023/04/08 11:38:23;;;;;;;;;34.20;31.60;;;;;;;;5030915;29;8806;-68
2023/04/08 11:40:55;;;;;;;;;17.60;17.60;;;;;;;;5030879;29;8969;-68
2023/04/08 11:43:27;;;;;;;;;17.00;17.00;;;;;;;;5038075;29;8856;-68
2023/04/08 11:45:58;;;;;;;;;12.20;12.00;;;;;;;;5030515;29;8803;-67
2023/04/08 11:49:04;;;;;;;;;9.20;8.80;;;;;;;;5039638;29;9428;-67
2023/04/08 11:51:53;;;;;;;;;9.20;8.40;;;;;;;;5055157;29;8833;-67
2023/04/08 11:54:25;;;;;;;;;4.50;4.50;;;;;;;;5047883;29;8834;-67
2023/04/08 11:57:27;;;;;;;;;3.00;3.00;;;;;;;;5080977;29;8827;-67
2023/04/08 11:59:58;;;;;;;;;87.20;64.40;;;;;;;;5050082;29;8789;-67
2023/04/08 12:02:28;;;;;;;;;9.25;8.75;;;;;;;;5050002;29;8797;-68
2023/04/08 12:05:00;;;;;;;;;1.67;1.67;;;;;;;;5050244;29;10076;-67
2023/04/08 12:07:31;;;;;;;;;4.75;4.75;;;;;;;;5066887;29;8790;-67
2023/04/08 12:10:02;;;;;;;;;2.00;2.00;;;;;;;;5066875;29;8861;-67
2023/04/08 12:12:34;;;;;;;;;4.00;4.00;;;;;;;;5066169;29;8841;-67
2023/04/08 12:15:05;;;;;;;;;7.50;7.50;;;;;;;;5050608;29;8796;-67
2023/04/08 12:17:37;;;;;;;;;13.40;12.80;;;;;;;;5066259;29;11487;-67
2023/04/08 12:20:09;;;;;;;;;4.25;4.25;;;;;;;;5066061;29;8829;-67
2023/04/08 12:22:40;;;;;;;;;8.40;7.60;;;;;;;;5048648;29;8987;-67
2023/04/08 12:25:30;;;;;;;;;3.25;3.25;;;;;;;;5052222;29;8786;-67
2023/04/08 12:28:20;;;;;;;;;2.75;2.75;;;;;;;;5065544;29;9529;-68
2023/04/08 12:30:51;;;;;;;;;6.25;6.00;;;;;;;;5047498;29;8814;-68
2023/04/08 12:33:22;;;;;;;;;16.00;15.00;;;;;;;;5049070;29;8852;-68
2023/04/08 12:35:53;;;;;;;;;103.25;88.25;;;;;;;;5049118;29;9523;-68
2023/04/08 12:38:25;;;;;;;;;28.80;20.20;;;;;;;;5049214;29;8797;-69
2023/04/08 12:41:14;;;;;;;;;6.00;6.00;;;;;;;;5065485;29;8941;-69
2023/04/08 12:43:45;;;;;;;;;10.00;8.00;;;;;;;;5032683;29;8964;-68
2023/04/08 12:46:16;;;;;;;;;10.00;10.00;;;;;;;;5049289;29;8786;-68
2023/04/08 12:48:47;;;;;;;;;16.00;16.00;;;;;;;;5048970;29;8852;-68
2023/04/08 12:51:18;;;;;;;;;23.50;23.50;;;;;;;;5048999;29;8818;-68
2023/04/08 12:53:49;;;;;;;;;9.25;9.25;;;;;;;;5065520;29;8963;-68
2023/04/08 12:56:20;;;;;;;;;6.50;6.50;;;;;;;;5065323;29;8855;-68
2023/04/08 12:58:51;;;;;;;;;12.40;12.00;;;;;;;;5065350;29;8840;-68
2023/04/08 13:01:40;;;;;;;;;12.80;12.20;;;;;;;;5036114;29;8824;-68
2023/04/08 13:04:11;;;;;;;;;19.40;18.60;;;;;;;;5033194;29;8846;-68
2023/04/08 13:06:42;;;;;;;;;14.25;14.25;;;;;;;;5064877;29;8840;-68
2023/04/08 13:09:14;;;;;;;;;12.00;12.00;;;;;;;;5048517;29;9567;-68
2023/04/08 13:11:44;;;;;;;;;9.40;8.60;;;;;;;;5064727;29;11623;-68
2023/04/08 13:14:16;;;;;;;;;5.33;5.33;;;;;;;;5032838;29;8870;-68
2023/04/08 13:16:47;;;;;;;;;6.25;6.25;;;;;;;;5064450;29;9481;-68
2023/04/08 13:19:18;;;;;;;;;8.40;8.40;;;;;;;;5033013;29;8796;-68
2023/04/08 13:21:49;;;;;;;;;6.00;6.00;;;;;;;;5048479;29;8894;-67
2023/04/08 13:24:19;;;;;;;;;5.00;5.00;;;;;;;;5018436;29;8934;-68
2023/04/08 13:27:08;;;;;;;;;6.00;6.00;;;;;;;;5048031;29;8832;-68
2023/04/08 13:29:58;;;;;;;;;9.00;9.00;;;;;;;;5047903;29;8828;-69
2023/04/08 13:32:29;;;;;;;;;8.00;8.00;;;;;;;;5048228;29;9542;-68
2023/04/08 13:35:00;;;;;;;;;14.20;12.40;;;;;;;;5048813;29;9520;-68
2023/04/08 13:37:31;;;;;;;;;12.50;12.50;;;;;;;;5048146;29;8847;-68
2023/04/08 13:40:02;;;;;;;;;10.80;10.80;;;;;;;;5047472;29;8964;-68
2023/04/08 13:42:33;;;;;;;;;12.20;12.20;;;;;;;;5033311;29;9544;-68
2023/04/08 13:45:05;;;;;;;;;13.40;12.60;;;;;;;;5065057;29;8784;-68
2023/04/08 13:47:54;;;;;;;;;7.20;7.20;;;;;;;;5064963;29;8847;-67
2023/04/08 13:50:25;;;;;;;;;9.75;9.75;;;;;;;;5072655;29;8798;-68
2023/04/08 13:52:56;;;;;;;;;8.40;8.40;;;;;;;;5065292;29;8974;-67
2023/04/08 13:55:45;;;;;;;;;19.20;19.20;;;;;;;;5062743;29;8850;-67
2023/04/08 13:58:35;;;;;;;;;13.00;13.00;;;;;;;;5034809;29;8816;-67
2023/04/08 14:01:06;;;;;;;;;18.00;18.00;;;;;;;;5065056;29;8873;-67
2023/04/08 14:03:38;;;;;;;;;21.40;21.40;;;;;;;;5064867;29;8845;-67
2023/04/08 14:06:09;;;;;;;;;19.25;18.00;;;;;;;;5048013;29;8901;-67
2023/04/08 14:08:41;;;;;;;;;22.80;22.80;;;;;;;;5032502;29;9688;-67
2023/04/08 14:11:12;;;;;;;;;28.00;28.00;;;;;;;;5061433;29;8822;-69
2023/04/08 14:13:43;;;;;;;;;23.20;22.80;;;;;;;;5031894;29;9541;-68
2023/04/08 14:16:15;;;;;;;;;20.80;20.60;;;;;;;;5032553;29;8840;-68
2023/04/08 14:18:46;;;;;;;;;21.80;21.40;;;;;;;;5064270;29;9624;-67
2023/04/08 14:21:17;;;;;;;;;19.00;19.00;;;;;;;;5063136;29;8961;-67
2023/04/08 14:24:07;;;;;;;;;29.60;28.60;;;;;;;;5049721;29;11533;-67
2023/04/08 14:26:56;;;;;;;;;59.60;45.40;;;;;;;;5050594;29;9541;-67
2023/04/08 14:29:27;;;;;;;;;83.20;68.60;;;;;;;;5064380;29;8912;-66
2023/04/08 14:31:58;;;;;;;;;81.00;64.25;;;;;;;;5061216;29;8810;-67
2023/04/08 14:34:29;;;;;;;;;79.75;67.25;;;;;;;;5047641;29;9639;-67
2023/04/08 14:37:00;;;;;;;;;76.00;59.50;;;;;;;;5045279;29;8814;-67
2023/04/08 14:39:31;;;;;;;;;77.75;57.50;;;;;;;;5028531;29;8822;-69
2023/04/08 14:42:01;;;;;;;;;97.80;82.20;;;;;;;;5030052;29;8938;-68
2023/04/08 14:44:33;;;;;;;;;135.25;103.50;;;;;;;;5047523;29;8809;-68
2023/04/08 14:47:04;;;;;;;;;137.67;112.67;;;;;;;;5065000;29;8849;-67
2023/04/08 14:49:35;;;;;;;;;78.00;70.60;;;;;;;;5062111;29;8823;-67
2023/04/08 14:52:06;;;;;;;;;66.00;52.00;;;;;;;;5065408;29;8832;-68
2023/04/08 14:54:37;;;;;;;;;50.80;42.20;;;;;;;;5050941;29;11528;-68
2023/04/08 14:57:08;;;;;;;;;54.40;44.80;;;;;;;;5067393;29;8869;-67
2023/04/08 14:59:39;;;;;;;;;57.25;46.50;;;;;;;;5051650;29;8805;-67
2023/04/08 15:02:11;;;;;;;;;50.80;42.20;;;;;;;;5067352;29;8817;-67
2023/04/08 15:04:42;;;;;;;;;53.40;44.00;;;;;;;;5041108;29;8808;-68
2023/04/08 15:07:13;;;;;;;;;42.60;36.80;;;;;;;;5042275;29;8832;-67
2023/04/08 15:09:44;;;;;;;;;48.00;40.00;;;;;;;;5074272;29;8823;-67
2023/04/08 15:12:33;;;;;;;;;49.80;42.20;;;;;;;;5057183;29;8808;-67
2023/04/08 15:15:04;;;;;;;;;61.25;48.25;;;;;;;;5087202;29;8822;-67
2023/04/08 15:17:35;;;;;;;;;65.60;53.00;;;;;;;;5055755;29;12246;-68